Time;durP1;ratioP1;P1;durP2;ratioP2;P2;SDS_P1;SDS_P2;PMS_P1;PMS_P2;Temp;Humidity;BMP_temperature;BMP_pressure;BME280_temperature;BME280_humidity;BME280_pressure;Samples;Min_cycle;Max_cycle;Signal;HPM_P1;HPM_P2
2023/11/06 00:01:56;;;;;;;0.10;0.10;;;18.70;50.80;;;;;;5000381;28;20192;-54
2023/11/06 00:04:27;;;;;;;0.08;0.08;;;18.70;50.70;;;;;;5025552;28;20238;-52
2023/11/06 00:06:59;;;;;;;0.10;0.10;;;18.70;50.70;;;;;;5029475;28;20200;-53
2023/11/06 00:09:30;;;;;;;0.00;0.00;;;18.70;50.70;;;;;;5010273;28;20251;-53
2023/11/06 00:12:01;;;;;;;0.10;0.10;;;18.80;50.70;;;;;;5007070;28;20201;-54
2023/11/06 00:14:32;;;;;;;0.00;0.00;;;18.80;50.70;;;;;;5011127;28;20661;-55
2023/11/06 00:17:02;;;;;;;0.00;0.00;;;18.80;50.60;;;;;;5011037;28;20287;-52
2023/11/06 00:19:33;;;;;;;0.10;0.10;;;18.90;50.70;;;;;;5011456;28;20231;-54
2023/11/06 00:22:05;;;;;;;0.00;0.00;;;18.80;50.60;;;;;;5011144;28;20201;-51
2023/11/06 00:24:36;;;;;;;0.03;0.03;;;18.90;50.70;;;;;;5010423;28;20217;-54
2023/11/06 00:27:07;;;;;;;0.00;0.00;;;18.90;50.60;;;;;;5011245;28;20205;-54
2023/11/06 00:29:38;;;;;;;0.10;0.10;;;18.90;50.60;;;;;;5011192;28;20653;-53
2023/11/06 00:32:09;;;;;;;0.00;0.00;;;18.90;50.60;;;;;;5011145;28;20201;-55
2023/11/06 00:34:39;;;;;;;0.05;0.05;;;18.90;50.60;;;;;;5027936;23;20193;-49
2023/11/06 00:37:12;;;;;;;0.10;0.10;;;19.00;50.70;;;;;;5013786;28;20203;-49
2023/11/06 00:39:45;;;;;;;0.03;0.03;;;19.00;50.70;;;;;;4994332;28;20229;-51
2023/11/06 00:42:16;;;;;;;0.00;0.00;;;19.00;50.70;;;;;;4994147;28;20280;-50
2023/11/06 00:44:47;;;;;;;0.10;0.10;;;19.00;50.70;;;;;;4994530;28;20226;-51
2023/11/06 00:47:18;;;;;;;0.10;0.10;;;19.00;50.60;;;;;;4994199;28;20201;-49
2023/11/06 00:49:48;;;;;;;0.00;0.00;;;19.00;50.60;;;;;;5008018;28;20204;-47
2023/11/06 00:52:21;;;;;;;0.00;0.00;;;19.10;50.70;;;;;;5013187;28;20725;-50
2023/11/06 00:54:52;;;;;;;0.03;0.03;;;19.10;50.60;;;;;;5013801;28;20650;-49
2023/11/06 00:57:22;;;;;;;0.10;0.10;;;19.10;50.60;;;;;;5014207;28;20203;-47
2023/11/06 00:59:53;;;;;;;0.10;0.10;;;19.10;50.60;;;;;;5013250;28;20256;-52
2023/11/06 01:02:24;;;;;;;0.10;0.10;;;19.10;50.50;;;;;;5014179;28;20197;-52
2023/11/06 01:04:55;;;;;;;0.00;0.00;;;19.20;50.60;;;;;;5013554;28;20307;-51
2023/11/06 01:07:28;;;;;;;0.10;0.10;;;19.20;50.50;;;;;;5014239;28;20192;-48
2023/11/06 01:09:59;;;;;;;0.08;0.08;;;19.20;50.50;;;;;;5003147;28;20193;-51
2023/11/06 01:12:30;;;;;;;0.10;0.10;;;19.20;50.50;;;;;;4994495;28;20197;-46
2023/11/06 01:15:00;;;;;;;0.10;0.10;;;19.20;50.40;;;;;;5008337;28;20295;-49
2023/11/06 01:17:31;;;;;;;0.10;0.10;;;19.20;50.40;;;;;;5014277;28;20220;-46
2023/11/06 01:20:02;;;;;;;0.13;0.13;;;19.20;50.40;;;;;;5013983;28;20263;-51
2023/11/06 01:22:37;;;;;;;0.00;0.00;;;19.20;50.30;;;;;;5014086;28;20207;-50
2023/11/06 01:25:09;;;;;;;0.10;0.10;;;19.20;50.30;;;;;;5013488;28;20828;-49
2023/11/06 01:27:40;;;;;;;0.10;0.10;;;19.20;50.30;;;;;;5014266;28;20219;-51
2023/11/06 01:30:11;;;;;;;0.10;0.10;;;19.20;50.30;;;;;;5015983;28;20744;-49
2023/11/06 01:32:42;;;;;;;0.10;0.10;;;19.20;50.20;;;;;;5014476;28;20207;-50
2023/11/06 01:35:13;;;;;;;0.00;0.00;;;19.20;50.30;;;;;;5013706;28;20220;-50
2023/11/06 01:37:46;;;;;;;0.00;0.00;;;19.20;50.20;;;;;;5013202;28;20879;-50
2023/11/06 01:40:17;;;;;;;0.00;0.00;;;19.20;50.20;;;;;;5014158;28;20764;-50
2023/11/06 01:42:48;;;;;;;0.00;0.00;;;19.30;50.20;;;;;;5013428;28;20204;-52
2023/11/06 01:45:19;;;;;;;0.10;0.10;;;19.30;50.20;;;;;;5013110;28;20216;-49
2023/11/06 01:47:50;;;;;;;0.00;0.00;;;19.30;50.20;;;;;;5013444;28;20201;-49
2023/11/06 01:50:21;;;;;;;0.10;0.10;;;19.30;50.10;;;;;;5013571;28;20197;-50
2023/11/06 01:52:54;;;;;;;0.10;0.10;;;19.30;50.10;;;;;;5014541;28;20197;-51
2023/11/06 01:55:27;;;;;;;0.10;0.10;;;19.30;50.70;;;;;;5017266;28;20219;-51
2023/11/06 01:57:58;;;;;;;0.10;0.10;;;19.30;50.10;;;;;;5012549;28;20193;-49
2023/11/06 02:00:29;;;;;;;0.10;0.10;;;19.30;50.10;;;;;;5021080;28;20220;-50
2023/11/06 02:03:02;;;;;;;0.00;0.00;;;19.30;50.10;;;;;;5033073;28;20196;-51
2023/11/06 02:05:33;;;;;;;0.00;0.00;;;19.30;50.10;;;;;;5017844;28;20211;-51
2023/11/06 02:08:06;;;;;;;0.08;0.08;;;19.30;50.10;;;;;;5014245;28;20238;-52
2023/11/06 02:10:37;;;;;;;0.10;0.10;;;19.30;50.10;;;;;;5002602;28;20201;-52
2023/11/06 02:13:07;;;;;;;0.08;0.08;;;19.30;50.10;;;;;;5013031;28;20664;-51
2023/11/06 02:15:40;;;;;;;0.00;0.00;;;19.30;50.10;;;;;;5013138;28;20248;-53
2023/11/06 02:18:11;;;;;;;0.00;0.00;;;19.30;50.20;;;;;;5013301;28;20199;-47
2023/11/06 02:20:41;;;;;;;0.00;0.00;;;19.30;50.10;;;;;;5013489;28;20228;-49
2023/11/06 02:23:14;;;;;;;0.10;0.10;;;19.30;50.10;;;;;;5012388;28;20189;-48
2023/11/06 02:25:45;;;;;;;0.10;0.10;;;19.30;50.00;;;;;;5013102;28;20591;-51
2023/11/06 02:28:15;;;;;;;0.10;0.10;;;19.30;50.00;;;;;;5012609;28;20196;-48
2023/11/06 02:30:47;;;;;;;0.03;0.03;;;19.30;50.00;;;;;;5013438;28;20204;-47
2023/11/06 02:33:20;;;;;;;0.00;0.00;;;19.30;50.00;;;;;;5012130;28;20220;-50
2023/11/06 02:35:50;;;;;;;0.05;0.05;;;19.30;49.90;;;;;;5029261;23;20229;-54
2023/11/06 02:38:23;;;;;;;0.00;0.00;;;19.30;49.90;;;;;;5012912;28;20319;-53
2023/11/06 02:40:54;;;;;;;0.00;0.00;;;19.30;49.90;;;;;;5016189;28;20231;-54
2023/11/06 02:43:25;;;;;;;0.10;0.10;;;19.30;49.80;;;;;;5015841;28;20220;-53
2023/11/06 02:45:56;;;;;;;0.05;0.05;;;19.30;49.90;;;;;;5011894;28;20224;-53
2023/11/06 02:48:26;;;;;;;0.10;0.10;;;19.40;49.90;;;;;;5012311;28;20196;-54
2023/11/06 02:50:57;;;;;;;0.20;0.20;;;19.40;49.90;;;;;;5012274;28;20197;-54
2023/11/06 02:53:30;;;;;;;0.00;0.00;;;19.30;49.90;;;;;;5011987;28;20237;-54
2023/11/06 02:56:00;;;;;;;0.00;0.00;;;19.30;49.80;;;;;;5012466;28;20219;-53
2023/11/06 02:58:31;;;;;;;0.00;0.00;;;19.40;49.90;;;;;;5011137;28;20609;-53
2023/11/06 03:01:02;;;;;;;0.10;0.10;;;19.30;49.90;;;;;;5014195;28;20232;-55
2023/11/06 03:03:32;;;;;;;0.10;0.10;;;19.40;49.80;;;;;;5012072;28;20199;-55
2023/11/06 03:06:03;;;;;;;0.10;0.10;;;19.40;49.90;;;;;;5012014;28;20227;-54
2023/11/06 03:08:35;;;;;;;0.00;0.00;;;19.40;49.80;;;;;;5011032;28;20200;-54
2023/11/06 03:11:07;;;;;;;0.00;0.00;;;19.40;49.80;;;;;;4992573;28;20205;-55
2023/11/06 03:13:38;;;;;;;0.03;0.03;;;19.40;49.80;;;;;;5008373;28;20247;-54
2023/11/06 03:16:09;;;;;;;0.08;0.08;;;19.40;49.80;;;;;;5011550;28;20259;-54
2023/11/06 03:18:40;;;;;;;0.10;0.10;;;19.40;49.80;;;;;;5011411;28;20277;-54
2023/11/06 03:21:11;;;;;;;0.00;0.00;;;19.40;49.80;;;;;;5011254;28;20300;-55
2023/11/06 03:23:43;;;;;;;0.10;0.10;;;19.50;49.90;;;;;;5011662;28;20668;-51
2023/11/06 03:26:14;;;;;;;0.10;0.10;;;19.50;49.90;;;;;;5011988;28;20212;-51
2023/11/06 03:28:44;;;;;;;0.10;0.10;;;19.40;49.80;;;;;;5011530;28;20653;-55
2023/11/06 03:31:15;;;;;;;0.00;0.00;;;19.50;49.80;;;;;;5014944;28;20440;-53
2023/11/06 03:33:46;;;;;;;0.00;0.00;;;19.50;49.80;;;;;;5014697;28;20192;-54
2023/11/06 03:36:16;;;;;;;0.10;0.10;;;19.50;49.70;;;;;;5034722;23;20228;-47
2023/11/06 03:38:49;;;;;;;0.10;0.10;;;19.40;49.70;;;;;;4999126;28;20194;-47
2023/11/06 03:41:20;;;;;;;0.08;0.08;;;19.50;49.70;;;;;;4991578;28;20224;-48
2023/11/06 03:43:51;;;;;;;0.03;0.03;;;19.50;49.80;;;;;;4991708;28;20228;-49
2023/11/06 03:46:22;;;;;;;0.10;0.10;;;19.50;49.80;;;;;;4991519;28;20264;-46
2023/11/06 03:48:53;;;;;;;0.00;0.00;;;19.50;49.80;;;;;;4991524;28;20669;-47
2023/11/06 03:51:23;;;;;;;0.08;0.08;;;19.50;49.80;;;;;;4992187;28;20554;-47
2023/11/06 03:53:56;;;;;;;0.05;0.05;;;19.50;49.70;;;;;;4991977;28;20244;-50
2023/11/06 03:56:27;;;;;;;0.10;0.10;;;19.50;49.70;;;;;;4991112;28;20623;-48
2023/11/06 03:58:57;;;;;;;0.10;0.10;;;19.50;49.70;;;;;;5013600;28;20196;-48
2023/11/06 04:01:28;;;;;;;0.10;0.10;;;19.50;49.70;;;;;;5015022;28;20408;-47
2023/11/06 04:04:00;;;;;;;0.10;0.10;;;19.50;49.70;;;;;;5006112;28;20466;-47
2023/11/06 04:06:31;;;;;;;0.00;0.00;;;19.50;49.60;;;;;;5011055;28;20213;-48
2023/11/06 04:09:04;;;;;;;0.00;0.00;;;19.50;49.50;;;;;;4999426;28;20231;-48
2023/11/06 04:11:34;;;;;;;0.10;0.10;;;19.50;49.50;;;;;;5015344;28;20295;-46
2023/11/06 04:14:05;;;;;;;0.10;0.10;;;19.50;49.40;;;;;;5014186;28;20678;-49
2023/11/06 04:16:36;;;;;;;0.10;0.10;;;19.50;49.40;;;;;;5015182;28;20243;-49
2023/11/06 04:19:07;;;;;;;0.08;0.08;;;19.50;49.40;;;;;;4998571;28;20190;-47
2023/11/06 04:21:38;;;;;;;0.03;0.03;;;19.50;49.40;;;;;;4995076;28;20229;-49
2023/11/06 04:24:11;;;;;;;0.00;0.00;;;19.50;49.40;;;;;;4996088;28;20221;-47
2023/11/06 04:26:42;;;;;;;0.00;0.00;;;19.50;49.50;;;;;;4994370;28;20268;-50
2023/11/06 04:29:12;;;;;;;0.10;0.10;;;19.50;49.50;;;;;;4998269;28;20201;-46
2023/11/06 04:31:43;;;;;;;0.00;0.00;;;19.50;49.50;;;;;;5013924;28;20211;-45
2023/11/06 04:34:14;;;;;;;0.10;0.10;;;19.50;49.50;;;;;;5015052;28;20196;-49
2023/11/06 04:36:44;;;;;;;0.00;0.00;;;19.50;49.50;;;;;;5014728;28;20247;-48
2023/11/06 04:39:17;;;;;;;0.10;0.10;;;19.50;49.50;;;;;;5014810;28;20193;-46
2023/11/06 04:41:48;;;;;;;0.13;0.13;;;19.50;49.60;;;;;;4995697;28;20260;-49
2023/11/06 04:44:19;;;;;;;0.10;0.10;;;19.50;49.40;;;;;;4994539;28;20201;-47
2023/11/06 04:46:50;;;;;;;0.10;0.10;;;19.50;49.40;;;;;;4994856;28;20225;-48
2023/11/06 04:49:20;;;;;;;0.10;0.10;;;19.50;49.30;;;;;;4994358;28;20194;-48
2023/11/06 04:51:51;;;;;;;0.10;0.10;;;19.50;49.30;;;;;;5009777;28;20196;-47
2023/11/06 04:54:24;;;;;;;0.00;0.00;;;19.50;49.30;;;;;;5015780;28;20273;-46
2023/11/06 04:56:54;;;;;;;0.00;0.00;;;19.50;49.20;;;;;;5014966;28;20205;-49
2023/11/06 04:59:25;;;;;;;0.00;0.00;;;19.50;49.30;;;;;;5014174;28;20189;-49
2023/11/06 05:01:55;;;;;;;0.00;0.00;;;19.50;49.20;;;;;;4994809;28;20287;-49
2023/11/06 05:04:26;;;;;;;0.00;0.00;;;19.50;49.20;;;;;;4995181;28;20713;-48
2023/11/06 05:06:58;;;;;;;0.10;0.10;;;19.50;49.20;;;;;;5003287;28;20276;-49
2023/11/06 05:09:30;;;;;;;0.08;0.08;;;19.50;49.20;;;;;;5006717;28;20269;-50
2023/11/06 05:12:01;;;;;;;0.00;0.00;;;19.50;49.30;;;;;;4994162;28;20205;-48
2023/11/06 05:14:32;;;;;;;0.00;0.00;;;19.50;49.30;;;;;;4995009;28;20198;-47
2023/11/06 05:17:05;;;;;;;0.03;0.03;;;19.50;49.30;;;;;;4994193;28;20193;-49
2023/11/06 05:19:41;;;;;;;0.05;0.05;;;19.50;49.30;;;;;;5011517;28;20189;-46
2023/11/06 05:22:12;;;;;;;0.00;0.00;;;19.50;49.30;;;;;;5012987;28;20290;-47
2023/11/06 05:24:45;;;;;;;0.10;0.10;;;19.50;49.30;;;;;;4996058;28;20189;-49
2023/11/06 05:27:16;;;;;;;0.00;0.00;;;19.50;49.30;;;;;;4993690;28;20208;-48
2023/11/06 05:29:47;;;;;;;0.00;0.00;;;19.50;49.10;;;;;;4997025;28;20217;-47
2023/11/06 05:32:17;;;;;;;0.03;0.03;;;19.50;49.10;;;;;;5024516;28;20192;-46
2023/11/06 05:34:48;;;;;;;0.00;0.00;;;19.50;49.00;;;;;;5009177;28;20228;-50
2023/11/06 05:37:19;;;;;;;0.00;0.00;;;19.50;49.00;;;;;;5013930;28;20810;-46
2023/11/06 05:39:51;;;;;;;0.00;0.00;;;19.50;49.00;;;;;;4995253;28;20204;-46
2023/11/06 05:42:22;;;;;;;0.10;0.10;;;19.50;49.00;;;;;;4994390;28;20239;-46
2023/11/06 05:44:52;;;;;;;0.00;0.00;;;19.50;49.00;;;;;;4993465;28;20321;-48
2023/11/06 05:47:23;;;;;;;0.00;0.00;;;19.50;49.10;;;;;;5006999;28;20205;-46
2023/11/06 05:49:54;;;;;;;0.00;0.00;;;19.50;49.00;;;;;;4996248;28;20193;-49
2023/11/06 05:52:24;;;;;;;0.03;0.03;;;19.50;49.10;;;;;;4993543;28;20693;-46
2023/11/06 05:54:57;;;;;;;0.10;0.10;;;19.50;49.10;;;;;;4994213;28;20217;-48
2023/11/06 05:57:27;;;;;;;0.10;0.10;;;19.50;49.10;;;;;;4999699;28;20217;-46
2023/11/06 05:59:58;;;;;;;0.05;0.05;;;19.50;49.10;;;;;;5002949;28;20200;-49
2023/11/06 06:02:29;;;;;;;0.10;0.10;;;19.50;49.20;;;;;;5013655;28;20231;-49
2023/11/06 06:04:59;;;;;;;0.03;0.03;;;19.50;49.10;;;;;;5024730;28;20240;-49
2023/11/06 06:07:30;;;;;;;0.10;0.10;;;19.50;49.10;;;;;;5032664;28;20200;-47
2023/11/06 06:10:03;;;;;;;0.03;0.03;;;19.50;49.10;;;;;;5008816;28;20193;-51
2023/11/06 06:12:34;;;;;;;0.00;0.00;;;19.50;49.10;;;;;;5010200;28;20192;-51
2023/11/06 06:15:05;;;;;;;0.10;0.10;;;19.50;49.10;;;;;;5007109;28;20600;-48
2023/11/06 06:17:37;;;;;;;0.05;0.05;;;19.50;49.10;;;;;;5012040;28;20254;-46
2023/11/06 06:20:12;;;;;;;0.10;0.10;;;19.50;49.10;;;;;;4993837;28;20194;-47
2023/11/06 06:22:43;;;;;;;0.10;0.10;;;19.50;49.20;;;;;;4993841;28;20240;-51
2023/11/06 06:25:16;;;;;;;0.00;0.00;;;19.50;49.10;;;;;;5011650;28;20216;-48
2023/11/06 06:27:46;;;;;;;0.00;0.00;;;19.50;49.10;;;;;;5012763;28;20575;-50
2023/11/06 06:30:17;;;;;;;0.00;0.00;;;19.50;49.10;;;;;;4999931;28;20232;-51
2023/11/06 06:32:48;;;;;;;0.00;0.00;;;19.50;49.10;;;;;;5011460;28;20205;-49
2023/11/06 06:35:18;;;;;;;0.00;0.00;;;19.40;49.10;;;;;;5011973;28;20232;-53
2023/11/06 06:37:49;;;;;;;0.00;0.00;;;19.50;49.10;;;;;;5012699;28;20698;-50
2023/11/06 06:40:22;;;;;;;0.08;0.08;;;19.50;49.20;;;;;;5013016;28;20672;-49
2023/11/06 06:42:52;;;;;;;0.05;0.05;;;19.50;49.20;;;;;;5029974;23;20328;-48
2023/11/06 06:45:23;;;;;;;0.10;0.10;;;19.50;49.20;;;;;;5013004;28;20243;-48
2023/11/06 06:47:53;;;;;;;0.00;0.00;;;19.50;49.20;;;;;;5012679;28;20200;-54
2023/11/06 06:50:24;;;;;;;0.00;0.00;;;19.50;49.10;;;;;;5012237;28;20201;-51
2023/11/06 06:52:55;;;;;;;0.00;0.00;;;19.50;49.10;;;;;;5013161;28;20200;-52
2023/11/06 06:55:27;;;;;;;0.08;0.08;;;19.50;49.20;;;;;;5012407;28;20275;-54
2023/11/06 06:57:59;;;;;;;0.00;0.00;;;19.50;49.20;;;;;;5012156;28;20224;-53
2023/11/06 07:00:30;;;;;;;0.10;0.10;;;19.50;49.10;;;;;;5012068;28;20212;-50
2023/11/06 07:03:05;;;;;;;0.10;0.10;;;19.50;49.10;;;;;;5011811;28;20251;-52
2023/11/06 07:05:35;;;;;;;0.10;0.10;;;19.40;49.10;;;;;;5012380;28;20220;-51
2023/11/06 07:08:06;;;;;;;0.00;0.00;;;19.40;49.10;;;;;;5012568;28;20212;-50
2023/11/06 07:10:39;;;;;;;0.10;0.10;;;19.50;49.10;;;;;;5012484;28;20197;-55
2023/11/06 07:13:10;;;;;;;0.00;0.00;;;19.40;49.10;;;;;;5009832;28;20255;-50
2023/11/06 07:15:40;;;;;;;0.00;0.00;;;19.40;49.10;;;;;;5012119;28;20219;-53
2023/11/06 07:18:11;;;;;;;0.00;0.00;;;19.40;49.10;;;;;;5011737;28;20204;-49
2023/11/06 07:20:41;;;;;;;0.10;0.10;;;19.40;49.10;;;;;;5012354;28;20200;-49
2023/11/06 07:23:12;;;;;;;0.00;0.00;;;19.40;49.10;;;;;;5012015;28;20237;-53
2023/11/06 07:25:44;;;;;;;0.10;0.10;;;19.40;49.10;;;;;;5011807;28;20212;-48
2023/11/06 07:28:16;;;;;;;0.00;0.00;;;19.40;49.10;;;;;;5011794;28;20201;-51
2023/11/06 07:30:46;;;;;;;0.03;0.03;;;19.40;49.10;;;;;;5024248;28;20196;-52
2023/11/06 07:33:17;;;;;;;0.00;0.00;;;19.40;49.10;;;;;;5031430;28;20580;-52
2023/11/06 07:35:48;;;;;;;0.00;0.00;;;19.40;49.10;;;;;;5031496;28;20212;-50
2023/11/06 07:38:18;;;;;;;0.00;0.00;;;19.40;49.70;;;;;;5031684;28;20656;-54
2023/11/06 07:43:19;;;;;;;0.00;0.00;;;19.40;49.10;;;;;;5009851;28;20239;-52
2023/11/06 07:45:49;;;;;;;0.00;0.00;;;19.30;49.00;;;;;;5012591;28;20224;-61
2023/11/06 07:48:20;;;;;;;0.00;0.00;;;19.40;48.70;;;;;;5017661;28;20199;-58
2023/11/06 07:50:50;;;;;;;0.10;0.10;;;19.30;47.90;;;;;;5031978;28;20196;-59
2023/11/06 07:53:21;;;;;;;0.00;0.00;;;19.20;47.50;;;;;;5024640;28;20197;-51
2023/11/06 07:55:52;;;;;;;0.00;0.00;;;19.10;47.20;;;;;;5011600;28;20587;-52
2023/11/06 07:58:24;;;;;;;0.00;0.00;;;19.00;47.20;;;;;;5011709;28;20555;-51
2023/11/06 08:00:55;;;;;;;0.10;0.10;;;19.00;47.50;;;;;;5015218;28;20207;-52
2023/11/06 08:03:26;;;;;;;0.00;0.00;;;18.90;47.60;;;;;;5004838;28;20220;-50
2023/11/06 08:05:56;;;;;;;0.10;0.10;;;18.90;47.80;;;;;;5011190;28;20231;-54
2023/11/06 08:08:27;;;;;;;0.10;0.10;;;18.80;48.00;;;;;;5011283;28;20201;-52
2023/11/06 08:10:58;;;;;;;0.00;0.00;;;18.80;48.10;;;;;;5011093;28;20215;-51
2023/11/06 08:13:30;;;;;;;0.10;0.10;;;18.80;48.20;;;;;;5010870;28;20538;-49
2023/11/06 08:16:03;;;;;;;0.00;0.00;;;18.80;48.20;;;;;;5011588;28;20222;-52
2023/11/06 08:18:34;;;;;;;0.08;0.08;;;18.80;48.30;;;;;;5011097;28;20716;-48
2023/11/06 08:21:05;;;;;;;0.10;0.10;;;18.80;48.30;;;;;;5010846;28;20201;-50
2023/11/06 08:23:36;;;;;;;0.00;0.00;;;18.80;48.40;;;;;;5010953;28;20693;-47
2023/11/06 08:26:06;;;;;;;0.00;0.00;;;18.80;48.40;;;;;;5011256;28;20223;-50
2023/11/06 08:28:40;;;;;;;0.00;0.00;;;18.80;48.40;;;;;;5011252;28;20595;-51
2023/11/06 08:31:11;;;;;;;0.00;0.00;;;18.80;48.40;;;;;;5011212;28;20287;-47
2023/11/06 08:33:41;;;;;;;0.00;0.00;;;18.80;48.50;;;;;;5010840;28;20232;-51
2023/11/06 08:36:13;;;;;;;0.00;0.00;;;18.80;48.50;;;;;;5011043;28;20217;-47
2023/11/06 08:38:44;;;;;;;0.00;0.00;;;18.80;48.50;;;;;;5011101;28;20280;-48
2023/11/06 08:41:14;;;;;;;0.00;0.00;;;18.80;48.50;;;;;;5024985;23;20245;-50
2023/11/06 08:43:47;;;;;;;0.00;0.00;;;18.80;48.50;;;;;;4994302;28;20569;-58
2023/11/06 08:46:18;;;;;;;0.00;0.00;;;18.80;48.60;;;;;;4991277;28;20225;-59
2023/11/06 08:48:48;;;;;;;0.10;0.10;;;18.80;48.60;;;;;;4990680;28;20193;-57
2023/11/06 08:51:19;;;;;;;0.00;0.00;;;18.80;48.60;;;;;;4991680;28;20204;-52
2023/11/06 08:53:49;;;;;;;0.00;0.00;;;18.80;48.70;;;;;;4971804;28;20545;-58
2023/11/06 08:56:23;;;;;;;0.00;0.00;;;18.80;48.70;;;;;;4984088;28;20225;-57
2023/11/06 08:58:56;;;;;;;0.10;0.10;;;18.80;48.70;;;;;;4991622;28;20683;-56
2023/11/06 09:01:27;;;;;;;0.00;0.00;;;18.80;48.70;;;;;;4997907;28;20240;-57
2023/11/06 09:03:57;;;;;;;0.00;0.00;;;18.80;48.70;;;;;;4994847;28;20204;-56
2023/11/06 09:06:28;;;;;;;0.00;0.00;;;18.80;48.70;;;;;;4994583;28;20685;-58
2023/11/06 09:08:59;;;;;;;0.08;0.08;;;18.80;48.70;;;;;;4994512;28;20205;-56
2023/11/06 09:11:30;;;;;;;0.00;0.00;;;18.80;48.80;;;;;;4993600;28;20225;-56
2023/11/06 09:14:03;;;;;;;0.00;0.00;;;18.80;48.70;;;;;;4994534;28;20581;-57
2023/11/06 09:16:36;;;;;;;0.00;0.00;;;18.80;48.80;;;;;;4996363;28;20706;-58
2023/11/06 09:19:07;;;;;;;0.10;0.10;;;18.80;48.70;;;;;;4994706;28;20202;-57
2023/11/06 09:21:38;;;;;;;0.10;0.10;;;18.80;48.70;;;;;;4993219;28;20202;-57
2023/11/06 09:24:12;;;;;;;0.00;0.00;;;18.80;48.70;;;;;;4993241;28;20676;-58
2023/11/06 09:26:42;;;;;;;0.00;0.00;;;18.80;48.80;;;;;;4994427;28;20622;-56
2023/11/06 09:29:15;;;;;;;0.10;0.10;;;18.80;48.80;;;;;;4993831;28;20197;-56
2023/11/06 09:31:46;;;;;;;0.10;0.10;;;18.80;48.90;;;;;;4994188;28;20205;-56
2023/11/06 09:34:16;;;;;;;0.00;0.00;;;18.80;48.80;;;;;;4994500;28;20209;-57
2023/11/06 09:36:50;;;;;;;0.10;0.10;;;18.70;48.80;;;;;;4993443;28;20221;-56
2023/11/06 09:39:21;;;;;;;0.00;0.00;;;18.70;48.80;;;;;;5005935;28;20185;-56
2023/11/06 09:41:54;;;;;;;0.08;0.08;;;18.80;48.90;;;;;;5029066;23;20244;-52
2023/11/06 09:44:28;;;;;;;0.00;0.00;;;18.70;48.90;;;;;;4994226;28;20197;-50
2023/11/06 09:46:59;;;;;;;0.05;0.05;;;18.70;48.80;;;;;;4973982;28;20260;-52
2023/11/06 09:49:37;;;;;;;0.00;0.00;;;18.70;48.80;;;;;;4974217;28;20651;-50
2023/11/06 09:52:08;;;;;;;0.10;0.10;;;18.70;48.80;;;;;;4974757;28;20216;-53
2023/11/06 09:54:41;;;;;;;0.00;0.00;;;18.70;48.80;;;;;;5003224;28;20192;-53
2023/11/06 09:57:13;;;;;;;0.00;0.00;;;18.70;48.80;;;;;;5005954;28;20186;-51
2023/11/06 09:59:46;;;;;;;0.00;0.00;;;18.70;48.80;;;;;;4976083;28;20632;-55
2023/11/06 10:02:16;;;;;;;0.00;0.00;;;18.70;48.80;;;;;;4989104;28;20218;-51
2023/11/06 10:04:47;;;;;;;0.03;0.03;;;18.80;48.80;;;;;;4974721;28;20198;-52
2023/11/06 10:07:41;;;;;;;0.05;0.05;;;18.70;48.80;;;;;;4985171;28;20196;-50
2023/11/06 10:10:18;;;;;;;0.10;0.10;;;18.70;48.80;;;;;;5013063;28;20247;-48
2023/11/06 10:13:01;;;;;;;0.00;0.00;;;18.70;48.80;;;;;;4997334;28;20190;-47
2023/11/06 10:15:34;;;;;;;0.10;0.10;;;18.70;48.80;;;;;;4983481;28;20252;-53
2023/11/06 10:18:15;;;;;;;0.03;0.03;;;18.70;48.80;;;;;;4983765;28;20290;-52
2023/11/06 10:20:47;;;;;;;0.10;0.10;;;18.70;48.90;;;;;;4974110;28;20206;-50
2023/11/06 10:23:26;;;;;;;0.10;0.10;;;18.70;48.90;;;;;;4973622;28;20229;-52
2023/11/06 10:25:57;;;;;;;0.10;0.10;;;18.70;48.90;;;;;;4973545;28;20261;-51
2023/11/06 10:28:28;;;;;;;0.10;0.10;;;18.70;48.90;;;;;;4973932;28;20201;-51
2023/11/06 10:31:00;;;;;;;0.10;0.10;;;18.70;48.90;;;;;;4992822;28;20708;-50
2023/11/06 10:33:32;;;;;;;0.00;0.00;;;18.70;48.90;;;;;;4981449;28;20231;-51
2023/11/06 10:36:03;;;;;;;0.00;0.00;;;18.70;48.90;;;;;;4993106;28;20646;-52
2023/11/06 10:38:34;;;;;;;0.00;0.00;;;18.70;48.90;;;;;;4993076;28;20193;-51
2023/11/06 10:41:24;;;;;;;0.08;0.08;;;18.70;48.90;;;;;;4993389;28;20280;-52
2023/11/06 10:43:59;;;;;;;0.00;0.00;;;18.60;48.90;;;;;;4992653;28;20708;-48
2023/11/06 10:46:34;;;;;;;0.10;0.10;;;18.70;48.80;;;;;;4992573;28;20217;-54
2023/11/06 10:49:13;;;;;;;0.10;0.10;;;18.60;48.80;;;;;;4976934;28;20217;-53
2023/11/06 10:51:45;;;;;;;0.00;0.00;;;18.60;48.80;;;;;;4973594;28;20209;-52
2023/11/06 10:54:17;;;;;;;0.00;0.00;;;18.60;48.80;;;;;;4973593;28;20233;-52
2023/11/06 10:56:48;;;;;;;0.00;0.00;;;18.60;48.90;;;;;;4985769;28;20230;-48
2023/11/06 10:59:20;;;;;;;0.00;0.00;;;18.60;48.90;;;;;;4991873;28;20662;-52
2023/11/06 11:01:53;;;;;;;0.10;0.10;;;18.60;48.90;;;;;;4992569;28;20205;-50
2023/11/06 11:04:25;;;;;;;0.10;0.10;;;18.60;48.90;;;;;;4991954;28;20309;-53
2023/11/06 11:06:57;;;;;;;0.08;0.08;;;18.60;48.90;;;;;;4992485;28;20249;-55
2023/11/06 11:09:29;;;;;;;0.08;0.08;;;18.60;48.90;;;;;;4991968;28;20204;-56
2023/11/06 11:12:01;;;;;;;0.08;0.08;;;18.60;48.90;;;;;;4992347;28;20229;-54
2023/11/06 11:14:32;;;;;;;0.00;0.00;;;18.60;48.90;;;;;;4973856;28;20448;-54
2023/11/06 11:17:11;;;;;;;0.10;0.10;;;18.60;48.90;;;;;;4975380;28;20209;-53
2023/11/06 11:19:42;;;;;;;0.08;0.08;;;18.60;48.90;;;;;;4973058;28;20220;-54
2023/11/06 11:22:15;;;;;;;0.05;0.05;;;18.60;48.90;;;;;;4972918;28;20208;-54
2023/11/06 11:24:54;;;;;;;0.00;0.00;;;18.60;48.90;;;;;;4972963;28;20202;-51
2023/11/06 11:27:27;;;;;;;0.00;0.00;;;18.60;48.90;;;;;;4990297;28;20201;-55
2023/11/06 11:30:12;;;;;;;0.10;0.10;;;18.50;48.80;;;;;;4976759;28;20208;-52
2023/11/06 11:32:54;;;;;;;0.00;0.00;;;18.50;49.50;;;;;;4991471;28;20198;-54
2023/11/06 11:36:01;;;;;;;0.00;0.00;;;18.50;48.80;;;;;;4993541;28;20225;-54
2023/11/06 11:38:38;;;;;;;0.00;0.00;;;18.50;48.90;;;;;;4990794;28;20669;-54
2023/11/06 11:41:15;;;;;;;0.00;0.00;;;18.50;48.90;;;;;;4992555;28;20208;-54
2023/11/06 11:43:49;;;;;;;0.00;0.00;;;18.50;48.90;;;;;;4980974;28;20730;-53
2023/11/06 11:47:03;;;;;;;0.10;0.10;;;18.50;48.90;;;;;;4972848;28;20222;-53
2023/11/06 11:49:56;;;;;;;0.10;0.10;;;18.40;48.90;;;;;;4988855;28;20201;-55
2023/11/06 11:52:45;;;;;;;0.03;0.03;;;18.40;48.90;;;;;;4988773;28;20189;-55
2023/11/06 11:55:37;;;;;;;0.10;0.10;;;18.50;49.00;;;;;;4991658;28;20241;-55
2023/11/06 11:58:09;;;;;;;0.10;0.10;;;18.40;49.00;;;;;;4995748;28;20531;-56
2023/11/06 12:00:40;;;;;;;0.10;0.10;;;18.40;49.00;;;;;;5001161;28;20217;-56
2023/11/06 12:03:11;;;;;;;0.10;0.10;;;18.40;49.00;;;;;;4991472;28;20228;-54
2023/11/06 12:05:46;;;;;;;0.00;0.00;;;18.40;49.00;;;;;;4991182;28;20232;-49
2023/11/06 12:08:18;;;;;;;0.10;0.10;;;18.40;49.00;;;;;;4986349;28;20230;-52
2023/11/06 12:10:50;;;;;;;0.03;0.03;;;18.40;49.00;;;;;;4982443;28;20192;-51
2023/11/06 12:13:22;;;;;;;0.10;0.10;;;18.40;49.00;;;;;;4999668;28;20194;-49
2023/11/06 12:15:53;;;;;;;0.10;0.10;;;18.40;49.00;;;;;;4971974;28;20280;-54
2023/11/06 12:18:24;;;;;;;0.00;0.00;;;18.40;49.00;;;;;;4971583;28;20194;-52
2023/11/06 12:21:02;;;;;;;0.10;0.10;;;18.40;49.00;;;;;;4985502;28;20201;-49
2023/11/06 12:23:33;;;;;;;0.10;0.10;;;18.40;49.00;;;;;;4984842;28;20218;-54
2023/11/06 12:26:12;;;;;;;0.00;0.00;;;18.40;49.00;;;;;;4972839;28;20224;-55
2023/11/06 12:28:47;;;;;;;0.10;0.10;;;18.40;49.00;;;;;;4971831;28;20202;-57
2023/11/06 12:31:19;;;;;;;0.03;0.03;;;18.40;49.00;;;;;;4982958;28;21412;-51
2023/11/06 12:33:49;;;;;;;0.10;0.10;;;18.30;49.00;;;;;;4977815;28;20202;-49
2023/11/06 12:36:34;;;;;;;0.00;0.00;;;18.30;49.00;;;;;;4994670;28;20212;-52
2023/11/06 12:39:05;;;;;;;0.10;0.10;;;18.30;49.10;;;;;;4995192;28;20193;-48
2023/11/06 12:41:39;;;;;;;0.00;0.00;;;18.30;49.00;;;;;;4995511;28;20205;-52
2023/11/06 12:44:15;;;;;;;0.10;0.10;;;18.30;49.00;;;;;;4994727;28;20245;-51
2023/11/06 12:46:46;;;;;;;0.00;0.00;;;18.30;49.00;;;;;;4994365;28;20300;-54
2023/11/06 12:49:18;;;;;;;0.10;0.10;;;18.30;49.00;;;;;;5004638;28;20228;-49
2023/11/06 12:51:54;;;;;;;0.08;0.08;;;18.30;49.00;;;;;;5015204;28;20219;-53
2023/11/06 12:54:25;;;;;;;0.10;0.10;;;18.30;49.00;;;;;;5014814;28;20196;-50
2023/11/06 12:56:55;;;;;;;0.10;0.10;;;18.30;49.00;;;;;;5010817;28;20204;-48
2023/11/06 12:59:26;;;;;;;0.10;0.10;;;18.30;49.00;;;;;;4975506;28;20206;-53
2023/11/06 13:01:58;;;;;;;0.10;0.10;;;18.30;49.00;;;;;;4995116;28;20204;-52
2023/11/06 13:04:30;;;;;;;0.10;0.10;;;18.30;49.10;;;;;;4995235;28;20696;-53
2023/11/06 13:07:02;;;;;;;0.10;0.10;;;18.30;49.00;;;;;;4995250;28;20225;-53
2023/11/06 13:09:35;;;;;;;0.05;0.05;;;18.30;49.10;;;;;;4995097;28;20193;-51
2023/11/06 13:12:07;;;;;;;0.00;0.00;;;18.20;49.00;;;;;;4994590;28;20229;-49
2023/11/06 13:14:37;;;;;;;0.00;0.00;;;18.20;49.00;;;;;;4994617;28;20206;-54
2023/11/06 13:17:10;;;;;;;0.10;0.10;;;18.20;49.00;;;;;;4994872;28;20200;-53